createdAt,value
2022-10-06T00:02:23.834Z,15.70
2022-10-06T00:05:05.562Z,15.20
2022-10-06T00:07:47.357Z,20.00
2022-10-06T00:10:29.869Z,16.30
2022-10-06T00:13:11.660Z,15.00
2022-10-06T00:15:54.054Z,17.20
2022-10-06T00:18:35.962Z,16.30
2022-10-06T00:21:17.961Z,16.90
2022-10-06T00:23:59.553Z,20.20
2022-10-06T00:26:41.195Z,17.50
2022-10-06T00:29:22.932Z,19.00
2022-10-06T00:32:04.623Z,18.90
2022-10-06T00:34:46.312Z,14.70
2022-10-06T00:37:29.477Z,15.50
2022-10-06T00:40:11.230Z,16.40
2022-10-06T00:43:05.109Z,17.70
2022-10-06T00:45:49.258Z,18.10
2022-10-06T00:48:31.684Z,15.10
2022-10-06T00:51:14.480Z,16.50
2022-10-06T00:53:58.326Z,14.10
2022-10-06T00:56:41.068Z,12.80
2022-10-06T00:59:23.752Z,17.40
2022-10-06T01:02:18.309Z,15.90
2022-10-06T01:05:03.805Z,14.70
2022-10-06T01:07:45.925Z,13.40
2022-10-06T01:10:28.026Z,15.50
2022-10-06T01:13:13.357Z,15.00
2022-10-06T01:16:02.290Z,16.90
2022-10-06T01:18:46.669Z,14.80
2022-10-06T01:21:44.692Z,13.40
2022-10-06T01:24:26.484Z,13.50
2022-10-06T01:27:11.501Z,15.90
2022-10-06T01:29:55.441Z,13.10
2022-10-06T01:32:39.344Z,16.80
2022-10-06T01:35:21.381Z,16.40
2022-10-06T01:38:03.133Z,14.30
2022-10-06T01:40:46.603Z,13.20
2022-10-06T01:43:28.354Z,15.40
2022-10-06T01:46:10.058Z,15.70
2022-10-06T01:48:51.839Z,13.40
2022-10-06T01:51:33.635Z,15.90
2022-10-06T01:54:15.527Z,13.30
2022-10-06T01:56:57.321Z,15.60
2022-10-06T01:59:39.422Z,14.90
2022-10-06T02:02:21.215Z,14.00
2022-10-06T02:05:04.134Z,16.00
2022-10-06T02:07:45.930Z,17.40
2022-10-06T02:10:31.102Z,16.00
2022-10-06T02:13:13.716Z,15.30
2022-10-06T02:15:59.717Z,15.20
2022-10-06T02:18:41.600Z,14.00
2022-10-06T02:21:23.805Z,16.20
2022-10-06T02:24:05.907Z,14.50
2022-10-06T02:26:47.595Z,16.00
2022-10-06T02:29:29.287Z,13.90
2022-10-06T02:32:11.284Z,17.50
2022-10-06T02:34:53.088Z,15.80
2022-10-06T02:37:35.383Z,20.30
2022-10-06T02:40:17.487Z,14.90
2022-10-06T02:43:00.095Z,16.80
2022-10-06T02:45:43.424Z,15.90
2022-10-06T02:48:29.153Z,16.20
2022-10-06T02:51:15.694Z,16.30
2022-10-06T02:53:58.073Z,15.90
2022-10-06T02:56:39.712Z,14.80
2022-10-06T02:59:21.369Z,16.00
2022-10-06T03:02:03.944Z,15.30
2022-10-06T03:04:45.707Z,16.70
2022-10-06T03:07:27.323Z,17.00
2022-10-06T03:10:09.194Z,14.70
2022-10-06T03:12:50.963Z,13.60
2022-10-06T03:15:32.679Z,14.10
2022-10-06T03:18:14.365Z,15.80
2022-10-06T03:21:00.461Z,16.40
2022-10-06T03:23:43.585Z,14.90
2022-10-06T03:26:32.264Z,14.40
2022-10-06T03:29:15.260Z,15.60
2022-10-06T03:31:59.818Z,14.60
2022-10-06T03:34:41.452Z,13.40
2022-10-06T03:37:24.942Z,15.50
2022-10-06T03:40:07.452Z,14.10
2022-10-06T03:42:49.142Z,14.20
2022-10-06T03:45:30.835Z,14.50
2022-10-06T03:48:12.728Z,13.80
2022-10-06T03:51:00.963Z,15.40
2022-10-06T03:53:48.609Z,14.10
2022-10-06T03:56:33.460Z,15.40
2022-10-06T03:59:19.708Z,13.80
2022-10-06T04:02:03.245Z,19.90
2022-10-06T04:04:49.089Z,14.70
2022-10-06T04:07:30.790Z,12.60
2022-10-06T04:10:12.674Z,13.70
2022-10-06T04:12:54.368Z,16.60
2022-10-06T04:15:36.691Z,13.40
2022-10-06T04:18:18.874Z,16.30
2022-10-06T04:21:00.771Z,57.00
2022-10-06T04:23:43.026Z,34.00
2022-10-06T04:26:28.247Z,19.40
2022-10-06T04:29:10.860Z,23.70
2022-10-06T04:31:52.589Z,20.00
2022-10-06T04:34:40.078Z,16.60
2022-10-06T04:37:21.718Z,14.20
2022-10-06T04:40:04.689Z,13.60
2022-10-06T04:42:47.712Z,14.30
2022-10-06T04:45:30.970Z,15.40
2022-10-06T04:48:14.267Z,12.70
2022-10-06T04:50:58.128Z,14.30
2022-10-06T04:53:41.028Z,14.30
2022-10-06T04:56:28.146Z,17.20
2022-10-06T04:59:10.556Z,16.80
2022-10-06T05:01:55.426Z,15.10
2022-10-06T05:04:37.624Z,13.60
2022-10-06T05:07:19.314Z,16.40
2022-10-06T05:10:01.209Z,21.90
2022-10-06T05:12:45.050Z,13.50
2022-10-06T05:15:29.207Z,17.10
2022-10-06T05:18:11.098Z,15.10
2022-10-06T05:21:06.375Z,14.50
2022-10-06T05:23:48.872Z,16.90
2022-10-06T05:26:32.189Z,13.70
2022-10-06T05:29:15.705Z,15.60
2022-10-06T05:31:58.506Z,18.60
2022-10-06T05:34:41.723Z,13.60
2022-10-06T05:37:25.310Z,19.60
2022-10-06T05:40:08.481Z,18.90
2022-10-06T05:42:50.377Z,16.30
2022-10-06T05:45:32.302Z,14.90
2022-10-06T05:48:14.783Z,17.50
2022-10-06T05:51:08.770Z,17.00
2022-10-06T05:53:53.321Z,17.60
2022-10-06T05:56:37.982Z,17.70
2022-10-06T05:59:20.799Z,17.40
2022-10-06T06:02:03.090Z,15.00
2022-10-06T06:04:47.867Z,15.90
2022-10-06T06:07:29.556Z,22.70
2022-10-06T06:10:11.452Z,19.20
2022-10-06T06:12:53.246Z,21.50
2022-10-06T06:16:02.149Z,18.70
2022-10-06T06:18:45.299Z,17.10
2022-10-06T06:21:29.448Z,20.40
2022-10-06T06:24:11.243Z,15.10
2022-10-06T06:26:53.137Z,16.80
2022-10-06T06:29:34.827Z,16.70
2022-10-06T06:32:16.521Z,15.20
2022-10-06T06:34:59.136Z,14.80
2022-10-06T06:37:41.641Z,23.70
2022-10-06T06:40:23.387Z,12.70
2022-10-06T06:43:06.154Z,13.50
2022-10-06T06:46:08.771Z,12.10
2022-10-06T06:49:13.031Z,15.50
2022-10-06T06:51:59.454Z,12.10
2022-10-06T06:54:42.784Z,15.10
2022-10-06T06:57:27.955Z,12.10
2022-10-06T07:00:12.811Z,16.40
2022-10-06T07:03:00.672Z,14.50
2022-10-06T07:05:48.157Z,12.10
2022-10-06T07:08:30.281Z,14.90
2022-10-06T07:11:18.873Z,14.70
2022-10-06T07:14:04.521Z,13.90
2022-10-06T07:17:06.601Z,10.20
2022-10-06T07:19:51.452Z,15.60
2022-10-06T07:22:52.908Z,14.30
2022-10-06T07:25:34.807Z,13.30
2022-10-06T07:28:20.535Z,14.10
2022-10-06T07:31:02.636Z,16.40
2022-10-06T07:33:46.224Z,19.00
2022-10-06T07:36:28.838Z,15.50
2022-10-06T07:39:12.615Z,16.50
2022-10-06T07:41:54.370Z,18.50
2022-10-06T07:44:36.161Z,15.40
2022-10-06T07:47:18.058Z,15.50
2022-10-06T07:50:13.164Z,17.00
2022-10-06T07:52:55.470Z,14.90
2022-10-06T07:55:40.124Z,15.90
2022-10-06T07:58:29.706Z,15.60
2022-10-06T08:01:13.546Z,13.30
2022-10-06T08:03:55.648Z,12.50
2022-10-06T08:06:38.772Z,12.10
2022-10-06T08:09:22.312Z,13.60
2022-10-06T08:12:24.276Z,15.20
2022-10-06T08:15:11.660Z,10.50
2022-10-06T08:17:54.207Z,13.90
2022-10-06T08:20:37.129Z,18.00
2022-10-06T08:23:18.822Z,13.60
2022-10-06T08:26:00.509Z,14.10
2022-10-06T08:28:48.308Z,13.30
2022-10-06T08:31:31.176Z,12.20
2022-10-06T08:34:12.955Z,9.20
2022-10-06T08:37:15.809Z,10.20
2022-10-06T08:39:57.840Z,10.10
2022-10-06T08:42:46.294Z,10.40
2022-10-06T08:45:38.755Z,9.80
2022-10-06T08:48:30.254Z,9.20
2022-10-06T08:51:56.695Z,6.90
2022-10-06T08:54:51.288Z,8.20
2022-10-06T08:57:39.020Z,8.30
2022-10-06T09:00:22.163Z,8.00
2022-10-06T09:03:05.374Z,11.10
2022-10-06T09:05:47.063Z,10.20
2022-10-06T09:08:47.697Z,8.60
2022-10-06T09:11:54.584Z,6.30
2022-10-06T09:14:48.242Z,7.60
2022-10-06T09:17:35.321Z,5.60
2022-10-06T09:20:51.410Z,5.60
2022-10-06T09:23:47.831Z,6.40
2022-10-06T09:26:31.975Z,6.80
2022-10-06T09:29:17.737Z,5.90
2022-10-06T09:31:59.532Z,5.40
2022-10-06T09:35:04.880Z,4.00
2022-10-06T09:37:57.322Z,5.70
2022-10-06T09:40:42.083Z,4.30
2022-10-06T09:43:31.763Z,4.50
2022-10-06T09:46:32.804Z,6.30
2022-10-06T09:49:20.843Z,3.20
2022-10-06T09:52:18.467Z,5.40
2022-10-06T09:55:12.653Z,4.90
2022-10-06T09:57:57.316Z,5.10
2022-10-06T10:00:46.898Z,3.30
2022-10-06T10:04:21.597Z,3.60
2022-10-06T10:07:25.167Z,4.90
2022-10-06T10:10:19.687Z,3.30
2022-10-06T10:13:01.756Z,2.50
2022-10-06T10:16:01.266Z,5.40
2022-10-06T10:18:48.179Z,4.60
2022-10-06T10:21:35.548Z,3.20
2022-10-06T10:24:27.969Z,4.80
2022-10-06T10:27:17.761Z,2.70
2022-10-06T10:30:09.395Z,5.10
2022-10-06T10:33:04.967Z,3.30
2022-10-06T10:35:52.797Z,7.90
2022-10-06T10:38:41.136Z,4.20
2022-10-06T10:41:29.002Z,3.90
2022-10-06T10:44:28.218Z,5.50
2022-10-06T10:47:28.067Z,3.70
2022-10-06T10:50:50.125Z,3.90
2022-10-06T10:53:49.823Z,1.90
2022-10-06T10:56:33.797Z,2.30
2022-10-06T10:59:37.831Z,2.90
2022-10-06T11:02:21.416Z,3.60
2022-10-06T11:05:13.483Z,4.70
2022-10-06T11:08:16.849Z,3.60
2022-10-06T11:11:06.374Z,6.00
2022-10-06T11:13:52.962Z,6.00
2022-10-06T11:16:49.090Z,5.20
2022-10-06T11:19:58.019Z,4.30
2022-10-06T11:23:02.648Z,4.80
2022-10-06T11:26:04.409Z,3.00
2022-10-06T11:29:02.974Z,3.80
2022-10-06T11:31:52.383Z,4.70
2022-10-06T11:34:34.263Z,5.30
2022-10-06T11:37:35.924Z,5.90
2022-10-06T11:40:50.079Z,5.50
2022-10-06T11:43:55.113Z,4.00
2022-10-06T11:46:45.166Z,4.20
2022-10-06T11:49:30.314Z,2.10
2022-10-06T11:52:11.961Z,5.40
2022-10-06T11:54:56.151Z,4.00
2022-10-06T11:58:23.393Z,4.60
2022-10-06T12:01:08.337Z,5.50
2022-10-06T12:04:05.289Z,4.00
2022-10-06T12:06:47.086Z,12.10
2022-10-06T12:09:32.118Z,5.50
2022-10-06T12:12:14.866Z,10.40
2022-10-06T12:18:24.065Z,5.60
2022-10-06T12:21:11.734Z,6.10
2022-10-06T12:24:24.881Z,4.70
2022-10-06T12:27:26.447Z,5.60
2022-10-06T12:30:13.963Z,2.70
2022-10-06T12:33:00.774Z,5.80
2022-10-06T12:35:43.187Z,6.50
2022-10-06T12:38:30.914Z,5.10
2022-10-06T12:41:13.731Z,5.10
2022-10-06T12:43:57.471Z,3.20
2022-10-06T12:46:43.665Z,5.50
2022-10-06T12:49:35.398Z,2.90
2022-10-06T12:52:38.982Z,4.50
2022-10-06T12:55:49.430Z,4.40
2022-10-06T12:58:34.180Z,4.50
2022-10-06T13:01:16.723Z,5.00
2022-10-06T13:03:59.091Z,5.70
2022-10-06T13:06:49.989Z,4.00
2022-10-06T13:09:32.398Z,7.70
2022-10-06T13:12:25.577Z,4.30
2022-10-06T13:18:20.214Z,5.40
2022-10-06T13:21:02.787Z,4.60
2022-10-06T13:23:47.553Z,2.80
2022-10-06T13:26:33.030Z,2.40
2022-10-06T13:29:26.089Z,6.20
2022-10-06T13:32:18.818Z,5.80
2022-10-06T13:35:01.481Z,6.30
2022-10-06T13:37:44.263Z,6.80
2022-10-06T13:40:46.023Z,7.50
2022-10-06T13:43:28.774Z,8.20
2022-10-06T13:46:16.299Z,6.60
2022-10-06T13:49:04.722Z,5.30
2022-10-06T13:51:53.058Z,3.70
2022-10-06T13:54:53.579Z,5.20
2022-10-06T13:57:46.869Z,3.50
2022-10-06T14:03:37.479Z,5.90
2022-10-06T14:06:22.389Z,4.30
2022-10-06T14:09:11.919Z,5.30
2022-10-06T14:12:21.142Z,3.50
2022-10-06T14:16:45.128Z,7.40
2022-10-06T14:20:56.589Z,4.90
2022-10-06T14:28:36.525Z,6.10
2022-10-06T14:32:20.433Z,7.80
2022-10-06T14:35:03.198Z,7.40
2022-10-06T14:37:49.616Z,4.80
2022-10-06T14:40:32.550Z,3.00
2022-10-06T14:43:15.336Z,6.90
2022-10-06T14:46:00.301Z,4.50
2022-10-06T14:48:43.380Z,3.90
2022-10-06T14:51:26.709Z,4.40
2022-10-06T14:54:10.263Z,7.70
2022-10-06T14:56:54.904Z,7.80
2022-10-06T14:59:36.616Z,3.40
2022-10-06T15:02:21.306Z,5.90
2022-10-06T15:05:03.048Z,3.10
2022-10-06T15:08:03.429Z,6.30
2022-10-06T15:14:02.915Z,9.50
2022-10-06T15:16:45.547Z,8.00
2022-10-06T15:19:28.658Z,5.00
2022-10-06T15:22:13.525Z,5.90
2022-10-06T15:24:57.894Z,6.30
2022-10-06T15:27:59.023Z,8.30
2022-10-06T15:30:41.764Z,7.40
2022-10-06T15:33:24.070Z,9.50
2022-10-06T15:36:20.943Z,5.40
2022-10-06T15:39:11.967Z,7.40
2022-10-06T15:41:54.839Z,9.60
2022-10-06T15:44:37.324Z,9.70
2022-10-06T15:47:20.113Z,8.80
2022-10-06T15:50:03.893Z,7.20
2022-10-06T15:52:46.223Z,6.20
2022-10-06T15:55:30.231Z,8.10
2022-10-06T15:58:13.128Z,8.10
2022-10-06T16:01:01.051Z,9.90
2022-10-06T16:03:44.397Z,6.20
2022-10-06T16:06:42.901Z,7.50
2022-10-06T16:09:41.994Z,10.20
2022-10-06T16:12:25.784Z,8.40
2022-10-06T16:15:08.427Z,9.00
2022-10-06T16:17:50.034Z,8.40
2022-10-06T16:20:31.725Z,9.10
2022-10-06T16:23:13.928Z,10.80
2022-10-06T16:25:55.618Z,9.50
2022-10-06T16:28:37.319Z,8.20
2022-10-06T16:31:20.880Z,12.20
2022-10-06T16:34:02.637Z,7.70
2022-10-06T16:36:44.737Z,10.70
2022-10-06T16:39:27.380Z,12.20
2022-10-06T16:42:14.236Z,16.20
2022-10-06T16:45:00.442Z,16.40
2022-10-06T16:47:46.047Z,15.60
2022-10-06T16:50:46.124Z,25.20
2022-10-06T16:53:48.297Z,18.90
2022-10-06T16:56:42.930Z,16.20
2022-10-06T16:59:28.824Z,16.80
2022-10-06T17:02:10.509Z,15.40
2022-10-06T17:04:52.202Z,13.90
2022-10-06T17:07:34.099Z,16.00
2022-10-06T17:10:20.444Z,17.10
2022-10-06T17:13:02.804Z,14.80
2022-10-06T17:15:56.614Z,17.30
2022-10-06T17:18:39.394Z,17.00
2022-10-06T17:21:44.433Z,23.10
2022-10-06T17:24:27.828Z,20.80
2022-10-06T17:27:10.414Z,26.80
2022-10-06T17:29:52.066Z,28.00
2022-10-06T17:32:33.962Z,31.40
2022-10-06T17:35:15.656Z,32.70
2022-10-06T17:37:57.298Z,27.50
2022-10-06T17:40:45.075Z,30.40
2022-10-06T17:43:26.766Z,24.90
2022-10-06T17:46:15.028Z,27.30
2022-10-06T17:48:57.499Z,24.90
2022-10-06T17:51:42.079Z,24.40
2022-10-06T17:54:25.517Z,24.70
2022-10-06T17:57:07.158Z,27.20
2022-10-06T17:59:48.936Z,23.60
2022-10-06T18:02:31.016Z,26.30
2022-10-06T18:05:14.425Z,26.80
2022-10-06T18:07:58.596Z,31.40
2022-10-06T18:11:06.624Z,40.50
2022-10-06T18:14:01.758Z,39.20
2022-10-06T18:16:45.395Z,42.10
2022-10-06T18:19:32.543Z,38.50
2022-10-06T18:22:16.897Z,32.40
2022-10-06T18:24:59.400Z,25.90
2022-10-06T18:27:41.363Z,29.50
2022-10-06T18:30:28.321Z,27.90
2022-10-06T18:36:10.440Z,24.30
2022-10-06T18:36:48.240Z,58.60
2022-10-06T18:39:31.888Z,49.80
2022-10-06T18:42:14.477Z,40.40
2022-10-06T18:48:47.512Z,33.90
2022-10-06T18:51:36.339Z,34.10
2022-10-06T18:54:26.851Z,35.10
2022-10-06T18:57:09.325Z,32.40
2022-10-06T18:59:51.764Z,29.50
2022-10-06T19:02:48.273Z,29.60
2022-10-06T19:05:32.961Z,39.60
2022-10-06T19:08:14.967Z,40.00
2022-10-06T19:11:20.758Z,38.90
2022-10-06T19:14:02.715Z,32.30
2022-10-06T19:16:46.371Z,30.70
2022-10-06T19:19:32.568Z,26.10
2022-10-06T19:22:17.737Z,32.00
2022-10-06T19:25:01.162Z,27.40
2022-10-06T19:27:43.976Z,32.50
2022-10-06T19:30:26.754Z,32.80
2022-10-06T19:33:11.521Z,32.80
2022-10-06T19:35:54.908Z,35.40
2022-10-06T19:38:38.649Z,37.50
2022-10-06T19:41:41.095Z,36.90
2022-10-06T19:44:27.392Z,32.50
2022-10-06T19:47:15.753Z,30.00
2022-10-06T19:50:04.695Z,26.80
2022-10-06T19:52:53.049Z,32.20
2022-10-06T19:55:38.177Z,32.40
2022-10-06T19:58:27.629Z,28.40
2022-10-06T20:01:14.535Z,28.70
2022-10-06T20:03:59.864Z,28.00
2022-10-06T20:06:47.941Z,26.40
2022-10-06T20:09:33.665Z,26.20
2022-10-06T20:12:23.610Z,27.00
2022-10-06T20:15:11.009Z,26.40
2022-10-06T20:17:55.951Z,29.60
2022-10-06T20:20:44.601Z,27.80
2022-10-06T20:23:29.266Z,26.60
2022-10-06T20:26:24.684Z,26.40
2022-10-06T20:29:12.803Z,24.10
2022-10-06T20:31:59.964Z,27.30
2022-10-06T20:34:45.883Z,23.60
2022-10-06T20:37:31.815Z,22.40
2022-10-06T20:40:34.543Z,21.00
2022-10-06T20:43:19.666Z,25.30
2022-10-06T20:46:06.936Z,23.30
2022-10-06T20:48:50.566Z,31.40
2022-10-06T20:51:36.618Z,24.70
2022-10-06T20:54:23.528Z,25.10
2022-10-06T20:57:10.280Z,24.60
2022-10-06T20:59:53.001Z,23.40
2022-10-06T21:02:34.710Z,20.40
2022-10-06T21:05:16.583Z,22.90
2022-10-06T21:07:58.273Z,28.30
2022-10-06T21:10:39.965Z,26.10
2022-10-06T21:13:21.622Z,34.90
2022-10-06T21:16:04.546Z,35.70
2022-10-06T21:18:47.188Z,35.20
2022-10-06T21:21:29.084Z,32.00
2022-10-06T21:24:10.774Z,32.00
2022-10-06T21:26:52.995Z,33.30
2022-10-06T21:29:34.974Z,29.60
2022-10-06T21:32:16.666Z,25.20
2022-10-06T21:35:00.219Z,27.30
2022-10-06T21:37:42.312Z,26.50
2022-10-06T21:40:24.247Z,28.70
2022-10-06T21:43:05.892Z,30.10
2022-10-06T21:45:48.295Z,33.40
2022-10-06T21:48:29.986Z,29.20
2022-10-06T21:51:11.681Z,31.40
2022-10-06T21:53:54.221Z,25.10
2022-10-06T21:56:36.185Z,26.00
2022-10-06T21:59:17.875Z,27.90
2022-10-06T22:01:59.820Z,26.90
2022-10-06T22:04:41.923Z,27.10
2022-10-06T22:07:23.665Z,28.90
2022-10-06T22:10:05.970Z,24.70
2022-10-06T22:12:47.639Z,25.50
2022-10-06T22:15:29.351Z,22.70
2022-10-06T22:18:11.044Z,24.40
2022-10-06T22:20:52.733Z,23.60
2022-10-06T22:23:34.426Z,25.90
2022-10-06T22:26:16.422Z,25.80
2022-10-06T22:28:59.046Z,25.90
2022-10-06T22:31:43.125Z,23.60
2022-10-06T22:34:25.182Z,25.00
2022-10-06T22:37:06.974Z,23.00
2022-10-06T22:39:48.667Z,25.20
2022-10-06T22:42:30.274Z,24.00
2022-10-06T22:45:12.663Z,24.20
2022-10-06T22:47:54.353Z,22.90
2022-10-06T22:50:36.043Z,25.10
2022-10-06T22:53:19.172Z,24.20
2022-10-06T22:56:02.753Z,23.20
2022-10-06T22:58:44.497Z,26.50
2022-10-06T23:01:27.108Z,26.30
2022-10-06T23:04:08.799Z,25.70
2022-10-06T23:06:50.490Z,21.20
2022-10-06T23:09:32.180Z,22.10
2022-10-06T23:12:13.871Z,24.10
2022-10-06T23:14:55.562Z,24.10
2022-10-06T23:17:38.072Z,22.10
2022-10-06T23:20:20.275Z,21.20
2022-10-06T23:23:02.170Z,22.30
2022-10-06T23:25:45.602Z,25.00
2022-10-06T23:28:27.307Z,19.10
2022-10-06T23:31:10.904Z,24.40
2022-10-06T23:33:54.365Z,21.80
2022-10-06T23:36:36.057Z,22.10
2022-10-06T23:39:17.752Z,24.90
2022-10-06T23:41:59.549Z,26.10
2022-10-06T23:44:41.227Z,22.10
2022-10-06T23:47:23.328Z,22.10
2022-10-06T23:50:05.737Z,21.00
2022-10-06T23:52:47.631Z,22.80
2022-10-06T23:55:29.322Z,21.70
2022-10-06T23:58:11.320Z,23.80
